createdAt,value
2022-12-08T00:02:13.260Z,78.45
2022-12-08T00:07:15.289Z,78.83
2022-12-08T00:12:17.190Z,78.85
2022-12-08T00:17:18.982Z,78.17
2022-12-08T00:22:20.946Z,78.48
2022-12-08T00:27:22.988Z,78.25
2022-12-08T00:32:24.919Z,78.18
2022-12-08T00:37:26.766Z,78.57
2022-12-08T00:42:28.615Z,78.22
2022-12-08T00:47:30.537Z,77.99
2022-12-08T00:52:32.532Z,77.36
2022-12-08T00:57:34.443Z,77.61
2022-12-08T01:02:36.270Z,77.34
2022-12-08T01:07:38.150Z,77.04
2022-12-08T01:12:40.011Z,76.89
2022-12-08T01:17:41.855Z,76.79
2022-12-08T01:22:43.676Z,76.70
2022-12-08T01:27:45.488Z,76.79
2022-12-08T01:32:47.440Z,76.96
2022-12-08T01:37:50.437Z,76.44
2022-12-08T01:42:52.301Z,76.01
2022-12-08T01:47:56.928Z,75.80
2022-12-08T01:53:04.287Z,75.67
2022-12-08T01:58:11.498Z,75.79
2022-12-08T02:03:18.763Z,75.21
2022-12-08T02:08:20.839Z,76.06
2022-12-08T02:13:23.111Z,75.71
2022-12-08T02:18:53.751Z,75.23
2022-12-08T02:24:17.988Z,75.41
2022-12-08T02:29:48.954Z,76.27
2022-12-08T02:35:40.120Z,75.70
2022-12-08T02:41:04.451Z,75.76
2022-12-08T02:46:09.016Z,75.76
2022-12-08T02:51:10.964Z,75.27
2022-12-08T02:56:27.623Z,75.01
2022-12-08T03:01:41.575Z,75.07
2022-12-08T03:07:32.904Z,75.33
2022-12-08T03:12:49.644Z,75.36
2022-12-08T03:17:54.992Z,75.34
2022-12-08T03:22:57.533Z,75.41
2022-12-08T03:27:59.672Z,74.76
2022-12-08T03:33:16.147Z,75.56
2022-12-08T03:38:18.214Z,75.46
2022-12-08T03:43:20.142Z,75.40
2022-12-08T03:48:22.038Z,75.73
2022-12-08T03:53:23.885Z,75.76
2022-12-08T03:58:25.701Z,75.91
2022-12-08T04:03:27.624Z,75.79
2022-12-08T04:08:29.651Z,76.14
2022-12-08T04:13:31.649Z,76.35
2022-12-08T04:18:34.034Z,77.34
2022-12-08T04:23:35.665Z,76.84
2022-12-08T04:28:37.812Z,76.85
2022-12-08T04:33:39.804Z,77.03
2022-12-08T04:38:41.638Z,79.32
2022-12-08T04:43:43.501Z,79.55
2022-12-08T04:48:45.324Z,79.35
2022-12-08T04:53:47.493Z,80.28
2022-12-08T04:58:49.343Z,80.44
2022-12-08T05:03:51.216Z,80.80
2022-12-08T05:08:53.064Z,81.09
2022-12-08T05:13:54.862Z,80.93
2022-12-08T05:18:56.655Z,80.75
2022-12-08T05:23:58.458Z,80.90
2022-12-08T05:29:00.282Z,80.63
2022-12-08T05:34:03.331Z,80.26
2022-12-08T05:39:05.521Z,80.77
2022-12-08T05:44:07.370Z,79.74
2022-12-08T05:49:09.277Z,79.05
2022-12-08T05:54:11.133Z,79.22
2022-12-08T05:59:12.989Z,78.86
2022-12-08T06:04:14.814Z,79.00
2022-12-08T06:09:16.601Z,79.16
2022-12-08T06:14:18.469Z,79.35
2022-12-08T06:19:20.248Z,80.07
2022-12-08T06:24:22.168Z,80.25
2022-12-08T06:29:23.975Z,79.50
2022-12-08T06:34:25.786Z,79.19
2022-12-08T06:39:27.638Z,78.83
2022-12-08T06:44:29.501Z,78.75
2022-12-08T06:49:31.308Z,79.24
2022-12-08T06:54:33.058Z,78.97
2022-12-08T06:59:34.946Z,77.75
2022-12-08T07:04:36.882Z,77.52
2022-12-08T07:09:38.787Z,76.98
2022-12-08T07:14:40.609Z,76.75
2022-12-08T07:19:42.467Z,75.59
2022-12-08T07:24:44.241Z,75.35
2022-12-08T07:29:45.979Z,75.59
2022-12-08T07:34:47.845Z,74.60
2022-12-08T07:39:49.651Z,73.97
2022-12-08T07:44:51.421Z,74.26
2022-12-08T07:49:53.267Z,73.82
2022-12-08T07:54:55.054Z,73.65
2022-12-08T07:59:56.830Z,73.66
2022-12-08T08:04:58.720Z,73.44
2022-12-08T08:10:00.571Z,72.96
2022-12-08T08:15:02.901Z,73.30
2022-12-08T08:20:06.703Z,72.57
2022-12-08T08:25:09.171Z,72.83
2022-12-08T08:30:18.135Z,72.67
2022-12-08T08:35:22.048Z,72.67
2022-12-08T08:40:24.008Z,73.04
2022-12-08T08:45:25.795Z,73.57
2022-12-08T08:50:30.472Z,74.00
2022-12-08T08:55:34.764Z,73.78
2022-12-08T09:00:36.619Z,73.33
2022-12-08T09:05:39.116Z,73.21
2022-12-08T09:10:41.018Z,73.24
2022-12-08T09:15:42.964Z,73.10
2022-12-08T09:20:44.847Z,72.94
2022-12-08T09:25:46.772Z,72.94
2022-12-08T09:30:48.781Z,73.12
2022-12-08T09:35:50.781Z,73.13
2022-12-08T09:40:53.262Z,72.88
2022-12-08T09:45:55.016Z,72.79
2022-12-08T09:50:57.449Z,73.03
2022-12-08T09:55:59.486Z,73.17
2022-12-08T10:01:01.353Z,72.60
2022-12-08T10:06:27.787Z,73.51
2022-12-08T10:11:46.845Z,73.19
2022-12-08T10:16:49.835Z,73.64
2022-12-08T10:21:51.788Z,75.08
2022-12-08T10:26:54.122Z,75.41
2022-12-08T10:31:59.255Z,75.29
2022-12-08T10:37:01.095Z,75.03
2022-12-08T10:42:06.663Z,75.31
2022-12-08T10:47:12.577Z,74.84
2022-12-08T10:52:24.031Z,75.29
2022-12-08T10:57:25.877Z,75.67
2022-12-08T11:02:27.823Z,76.37
2022-12-08T11:07:29.761Z,76.73
2022-12-08T11:12:31.562Z,77.26
2022-12-08T11:17:37.349Z,77.64
2022-12-08T11:22:43.295Z,77.67
2022-12-08T11:27:46.677Z,77.19
2022-12-08T11:32:57.350Z,76.89
2022-12-08T11:38:20.522Z,77.48
2022-12-08T11:43:28.891Z,77.28
2022-12-08T11:48:33.406Z,76.94
2022-12-08T11:53:58.801Z,77.11
2022-12-08T11:59:20.718Z,76.97
2022-12-08T12:04:41.198Z,77.48
2022-12-08T12:09:57.982Z,77.55
2022-12-08T12:15:37.977Z,77.45
2022-12-08T12:20:48.464Z,77.36
2022-12-08T12:25:59.820Z,77.24
2022-12-08T12:31:03.450Z,77.62
2022-12-08T12:36:06.846Z,77.24
2022-12-08T12:41:08.664Z,76.76
2022-12-08T12:46:25.662Z,76.86
2022-12-08T12:51:56.981Z,76.39
2022-12-08T12:57:04.775Z,76.18
2022-12-08T13:02:18.103Z,76.19
2022-12-08T13:07:25.092Z,75.99
2022-12-08T13:12:26.898Z,76.04
2022-12-08T13:17:33.492Z,76.22
2022-12-08T13:22:53.577Z,75.57
2022-12-08T13:27:56.720Z,75.62
2022-12-08T13:38:21.472Z,75.52
2022-12-08T13:43:45.047Z,75.93
2022-12-08T13:50:42.613Z,76.08
2022-12-08T14:00:15.098Z,76.24
2022-12-08T14:05:19.512Z,76.21
2022-12-08T14:10:37.172Z,76.23
2022-12-08T14:15:39.810Z,76.69
2022-12-08T14:21:12.637Z,76.34
2022-12-08T14:26:07.868Z,76.61
2022-12-08T14:31:09.808Z,77.08
2022-12-08T14:36:19.231Z,77.26
2022-12-08T14:41:25.519Z,76.65
2022-12-08T14:46:27.681Z,76.84
2022-12-08T14:51:31.207Z,76.45
2022-12-08T14:56:47.797Z,76.37
2022-12-08T15:01:51.158Z,76.43
2022-12-08T15:06:59.898Z,75.96
2022-12-08T15:12:13.078Z,76.42
2022-12-08T15:17:47.476Z,76.80
2022-12-08T15:22:49.360Z,77.51
2022-12-08T15:27:52.132Z,78.55
2022-12-08T15:32:54.088Z,78.03
2022-12-08T15:37:55.956Z,77.77
2022-12-08T15:42:58.028Z,78.11
2022-12-08T15:47:59.955Z,78.50
2022-12-08T15:53:01.962Z,78.10
2022-12-08T15:58:51.934Z,78.55
2022-12-08T16:09:06.129Z,78.82
2022-12-08T16:15:01.936Z,78.57
2022-12-08T16:19:37.170Z,78.69
2022-12-08T16:24:39.397Z,79.54
2022-12-08T16:29:41.225Z,79.99
2022-12-08T16:34:43.649Z,79.73
2022-12-08T16:39:45.978Z,79.96
2022-12-08T16:44:48.266Z,79.62
2022-12-08T16:49:50.189Z,80.03
2022-12-08T16:54:52.198Z,80.83
2022-12-08T16:59:54.093Z,80.92
2022-12-08T17:04:56.206Z,81.74
2022-12-08T17:09:58.777Z,82.42
2022-12-08T17:15:03.045Z,82.65
2022-12-08T17:20:12.161Z,81.78
2022-12-08T17:25:15.173Z,81.78
2022-12-08T17:30:17.193Z,81.32
2022-12-08T17:35:19.118Z,81.26
2022-12-08T17:40:21.314Z,81.30
2022-12-08T17:45:23.207Z,81.17
2022-12-08T17:50:25.080Z,80.75
2022-12-08T17:55:26.966Z,81.26
2022-12-08T18:00:28.883Z,81.32
2022-12-08T18:05:31.350Z,81.45
2022-12-08T18:10:33.239Z,82.17
2022-12-08T18:15:39.161Z,81.81
2022-12-08T18:20:41.301Z,81.77
2022-12-08T18:25:43.655Z,82.61
2022-12-08T18:30:45.466Z,81.77
2022-12-08T18:35:47.418Z,82.58
2022-12-08T18:40:49.234Z,82.11
2022-12-08T18:45:51.246Z,83.68
2022-12-08T18:50:53.205Z,83.36
2022-12-08T18:55:55.015Z,83.55
2022-12-08T19:00:56.956Z,83.11
2022-12-08T19:06:03.568Z,83.46
2022-12-08T19:11:05.997Z,83.04
2022-12-08T19:16:08.259Z,84.14
2022-12-08T19:21:10.484Z,84.06
2022-12-08T19:26:12.350Z,84.08
2022-12-08T19:31:14.180Z,83.58
2022-12-08T19:36:17.453Z,83.66
2022-12-08T19:41:19.280Z,83.10
2022-12-08T19:46:21.285Z,82.63
2022-12-08T19:51:23.342Z,82.05
2022-12-08T19:56:25.200Z,82.41
2022-12-08T20:01:27.178Z,82.54
2022-12-08T20:06:29.167Z,82.35
2022-12-08T20:11:31.014Z,82.27
2022-12-08T20:16:38.919Z,82.62
2022-12-08T20:21:40.859Z,82.46
2022-12-08T20:26:42.795Z,82.53
2022-12-08T20:31:44.931Z,82.44
2022-12-08T20:36:58.691Z,82.72
2022-12-08T20:42:00.613Z,82.60
2022-12-08T20:47:02.705Z,82.11
2022-12-08T20:52:04.845Z,83.14
2022-12-08T20:57:06.964Z,82.36
2022-12-08T21:02:10.683Z,82.82
2022-12-08T21:07:12.708Z,83.02
2022-12-08T21:12:14.786Z,83.08
2022-12-08T21:17:16.705Z,82.91
2022-12-08T21:22:19.024Z,83.34
2022-12-08T21:27:21.027Z,83.11
2022-12-08T21:32:28.625Z,83.61
2022-12-08T21:37:32.267Z,82.80
2022-12-08T21:42:34.607Z,83.30
2022-12-08T21:47:36.631Z,83.38
2022-12-08T21:52:42.712Z,83.67
2022-12-08T21:57:44.772Z,82.95
2022-12-08T22:02:47.061Z,83.64
2022-12-08T22:07:49.123Z,83.96
2022-12-08T22:12:51.367Z,83.30
2022-12-08T22:17:53.410Z,83.97
2022-12-08T22:22:55.306Z,84.11
2022-12-08T22:27:57.167Z,84.24
2022-12-08T22:32:58.938Z,84.11
2022-12-08T22:38:01.058Z,84.39
2022-12-08T22:43:02.925Z,84.50
2022-12-08T22:48:05.197Z,85.35
2022-12-08T22:53:07.487Z,85.30
2022-12-08T22:58:10.330Z,85.34
2022-12-08T23:03:12.345Z,85.55
2022-12-08T23:08:15.283Z,85.11
2022-12-08T23:13:17.383Z,86.51
2022-12-08T23:18:19.634Z,85.93
2022-12-08T23:23:21.710Z,86.45
2022-12-08T23:28:23.819Z,85.56
2022-12-08T23:33:25.958Z,86.57
2022-12-08T23:38:27.890Z,86.61
2022-12-08T23:43:29.970Z,86.28
2022-12-08T23:48:31.980Z,85.98
2022-12-08T23:53:34.051Z,85.34
2022-12-08T23:58:36.156Z,85.61
